LFRG/DOL METAR and TAF weather

Enter ICAO airport designator
Station Type Date Time Source
LFRG METAR 2020/09/20 13:00 UTC NOAA

LFRG 201300Z AUTO 08005KT 020V140 9999 BKN034 25/17 Q1015 NOSIG


Station Type Date Time Source
LFRG Decoded METAR 2020/09/20 13:00 UTC NOAA

Station name not available
Sep 20, 2020 - 09:00 AM EDT / 2020.09.20 1300 UTC
Wind: from the E (080 degrees) at 6 MPH (5 KT) (direction variable):0
Visibility: greater than 7 mile(s):0
Sky conditions: mostly cloudy
Temperature: 77 F (25 C)
Dew Point: 62 F (17 C)
Relative Humidity: 61%
Pressure (altimeter): 29.97 in. Hg (1015 hPa)
ob: LFRG 201300Z AUTO 08005KT 020V140 9999 BKN034 25/17 Q1015 NOSIG
cycle: 13

Station Type Date Time Source
LFRG TAF 2014/12/22 18:42 UTC NOAA

TAF
AMD TAF
AMD LFRG 221837Z 2218/2221 25015KT 9999 OVC015
TEMPO 2218/2221 BKN007 PROB30
TEMPO 2218/2221 25015G25KT 4000 DZ BKN003

Example: see airport list